Time;durP1;ratioP1;P1;durP2;ratioP2;P2;SDS_P1;SDS_P2;PMS_P1;PMS_P2;Temp;Humidity;BMP_temperature;BMP_pressure;BME280_temperature;BME280_humidity;BME280_pressure;Samples;Min_cycle;Max_cycle;Signal;HPM_P1;HPM_P2
2023/12/24 00:01:16;;;;;;;0.77;0.77;;;9.40;72.80;;;10.53;55.63;97414.44;5029179;28;20052;-53
2023/12/24 00:03:43;;;;;;;0.60;0.50;;;9.40;72.40;;;10.56;55.64;97405.28;5030400;28;20053;-53
2023/12/24 00:06:12;;;;;;;1.20;0.90;;;9.40;72.10;;;10.51;55.57;97419.09;5030068;28;20129;-53
2023/12/24 00:08:40;;;;;;;1.20;0.90;;;9.40;71.70;;;10.53;54.94;97419.75;5030075;28;20057;-51
2023/12/24 00:11:07;;;;;;;1.03;0.70;;;9.40;71.10;;;10.44;55.43;97412.75;5034116;28;20045;-54
2023/12/24 00:13:35;;;;;;;1.00;0.90;;;9.40;71.80;;;10.52;55.55;97418.06;5033132;28;20041;-51
2023/12/24 00:16:03;;;;;;;0.80;0.80;;;9.40;71.50;;;10.48;55.54;97413.25;5034003;28;20049;-54
2023/12/24 00:18:31;;;;;;;1.27;1.00;;;9.40;71.80;;;10.43;55.33;97417.25;5033407;28;20045;-54
2023/12/24 00:20:59;;;;;;;1.03;0.70;;;9.40;71.60;;;10.45;55.69;97414.44;5034169;28;20428;-54
2023/12/24 00:23:26;;;;;;;0.93;0.80;;;9.40;71.40;;;10.51;55.02;97416.44;5033917;28;20041;-52
2023/12/24 00:25:54;;;;;;;0.77;0.70;;;9.50;71.10;;;10.42;55.54;97412.91;5033632;28;20045;-52
2023/12/24 00:28:22;;;;;;;0.60;0.57;;;9.40;71.20;;;10.52;55.03;97415.41;5033341;28;20038;-54
2023/12/24 00:30:49;;;;;;;1.27;0.50;;;9.40;71.30;;;10.44;55.02;97386.97;5032193;28;20416;-52
2023/12/24 00:33:17;;;;;;;0.90;0.80;;;9.40;71.10;;;10.32;55.17;97406.13;5033460;28;20033;-51
2023/12/24 00:35:45;;;;;;;0.70;0.70;;;9.40;70.60;;;10.37;55.27;97401.97;5032273;28;20048;-55
2023/12/24 00:38:12;;;;;;;0.90;0.60;;;9.40;70.50;;;10.44;55.35;97404.78;5032147;28;20049;-51
2023/12/24 00:40:40;;;;;;;0.83;0.70;;;9.40;71.20;;;10.42;55.52;97412.91;5032027;28;20136;-51
2023/12/24 00:43:08;;;;;;;1.73;0.73;;;9.40;71.30;;;10.51;55.49;97404.97;5033157;28;20049;-50
2023/12/24 00:45:36;;;;;;;1.33;0.70;;;9.40;71.20;;;10.46;55.15;97392.13;5032298;28;20050;-53
2023/12/24 00:48:04;;;;;;;2.63;0.53;;;9.40;71.50;;;10.58;55.32;97404.09;5032784;28;20053;-54
2023/12/24 00:50:32;;;;;;;1.07;0.80;;;9.50;71.70;;;10.53;54.79;97387.00;5031906;28;20038;-52
2023/12/24 00:53:00;;;;;;;0.80;0.63;;;9.50;71.10;;;10.60;54.71;97377.31;5033131;28;20048;-54
2023/12/24 00:55:29;;;;;;;1.50;0.80;;;9.50;70.90;;;10.60;54.67;97393.28;5031648;28;20049;-53
2023/12/24 00:57:56;;;;;;;0.83;0.50;;;9.50;70.90;;;10.53;54.76;97385.16;5032885;28;20382;-54
2023/12/24 01:00:24;;;;;;;0.67;0.50;;;9.50;70.60;;;10.48;55.07;97384.00;5032248;28;20064;-54
2023/12/24 01:02:52;;;;;;;1.20;0.80;;;9.50;70.60;;;10.49;54.93;97396.28;5033160;28;20429;-50
2023/12/24 01:05:20;;;;;;;1.20;0.70;;;9.40;70.10;;;10.42;54.87;97401.44;5031464;28;20056;-55
2023/12/24 01:07:48;;;;;;;0.90;0.80;;;9.40;70.20;;;10.38;54.82;97405.44;5031549;28;20216;-53
2023/12/24 01:10:16;;;;;;;2.53;0.90;;;9.40;70.30;;;10.26;54.93;97412.91;5031702;28;20045;-54
2023/12/24 01:12:44;;;;;;;1.40;0.90;;;9.40;70.00;;;10.44;55.02;97421.56;5023581;28;20049;-54
2023/12/24 01:15:12;;;;;;;1.20;0.90;;;9.40;69.60;;;10.42;54.84;97409.44;5031122;28;20524;-54
2023/12/24 01:17:39;;;;;;;1.77;0.90;;;9.40;70.40;;;10.49;54.33;97410.44;5032395;28;20045;-53
2023/12/24 01:20:15;;;;;;;1.30;1.20;;;9.50;69.50;;;10.39;54.11;97399.09;5032492;28;20052;-53
2023/12/24 01:22:43;;;;;;;1.07;0.73;;;9.40;68.70;;;10.44;54.21;97412.75;5031600;28;20444;-54
2023/12/24 01:25:11;;;;;;;2.10;1.17;;;9.40;69.10;;;10.37;54.13;97406.44;5015224;28;20053;-52
2023/12/24 01:27:39;;;;;;;1.30;0.77;;;9.40;68.80;;;10.37;54.07;97420.59;5031970;28;20045;-53
2023/12/24 01:30:08;;;;;;;1.00;0.90;;;9.40;69.10;;;10.42;54.22;97409.44;5032800;28;20045;-52
2023/12/24 01:32:35;;;;;;;1.53;0.80;;;9.40;68.70;;;10.56;53.91;97418.59;5031328;28;20049;-54
2023/12/24 01:35:04;;;;;;;1.07;0.83;;;9.50;69.20;;;10.50;53.65;97400.63;5031163;28;20501;-51
2023/12/24 01:37:32;;;;;;;2.53;0.90;;;9.50;68.70;;;10.49;54.09;97396.28;5031036;28;20046;-53
2023/12/24 01:40:00;;;;;;;1.80;1.00;;;9.50;68.80;;;10.48;54.16;97384.81;5031377;28;20057;-54
2023/12/24 01:42:28;;;;;;;1.77;0.87;;;9.40;68.90;;;10.39;53.21;97396.44;5031329;28;20057;-54
2023/12/24 01:44:56;;;;;;;2.43;1.37;;;9.40;68.20;;;10.48;53.82;97389.31;5032094;28;20520;-52
2023/12/24 01:47:24;;;;;;;2.93;0.80;;;9.40;68.80;;;10.50;54.02;97379.31;5030701;28;20045;-53
2023/12/24 01:49:52;;;;;;;1.13;1.03;;;9.40;68.80;;;10.43;53.37;97387.97;5031771;28;20373;-54
2023/12/24 01:52:20;;;;;;;1.23;0.83;;;9.40;69.40;;;10.38;53.74;97384.97;5030857;28;20476;-54
2023/12/24 01:54:49;;;;;;;2.30;1.10;;;9.30;68.30;;;10.46;53.46;97381.50;5030436;28;20057;-52
2023/12/24 01:57:17;;;;;;;1.53;0.90;;;9.40;68.50;;;10.46;53.29;97396.63;5029880;28;20054;-53
2023/12/24 01:59:45;;;;;;;1.03;0.73;;;9.40;67.90;;;10.50;53.25;97397.97;5030319;28;20052;-53
2023/12/24 02:02:13;;;;;;;1.07;0.67;;;9.40;67.90;;;10.36;53.23;97386.97;5030582;28;20444;-54
2023/12/24 02:04:42;;;;;;;0.80;0.70;;;9.40;67.20;;;10.42;53.49;97390.81;5030456;28;20050;-51
2023/12/24 02:07:10;;;;;;;1.20;1.10;;;9.30;68.10;;;10.39;53.10;97384.00;5031937;28;20049;-53
2023/12/24 02:09:38;;;;;;;1.13;0.93;;;9.30;67.20;;;10.37;53.33;97382.47;5030013;28;20042;-52
2023/12/24 02:12:06;;;;;;;0.93;0.83;;;9.30;67.70;;;10.37;53.25;97375.34;5031626;28;20041;-53
2023/12/24 02:14:34;;;;;;;1.60;0.83;;;9.30;67.50;;;10.36;53.11;97386.16;5022680;28;20048;-51
2023/12/24 02:17:04;;;;;;;1.10;0.63;;;9.30;67.20;;;10.28;52.97;97384.28;5030448;28;20046;-54
2023/12/24 02:19:32;;;;;;;0.87;0.83;;;9.30;67.10;;;10.34;53.38;97388.97;5030061;28;20105;-54
2023/12/24 02:22:00;;;;;;;1.47;0.80;;;9.30;67.90;;;10.37;53.10;97390.47;5031635;28;20057;-53
2023/12/24 02:24:27;;;;;;;0.80;0.60;;;9.40;67.60;;;10.33;53.54;97392.66;5030246;28;20053;-52
2023/12/24 02:27:05;;;;;;;0.70;0.70;;;9.30;67.70;;;10.26;53.80;97383.63;5030584;28;20048;-53
2023/12/24 02:29:42;;;;;;;2.33;0.90;;;9.30;68.30;;;10.32;53.76;97395.47;5030038;28;20041;-52
2023/12/24 02:32:17;;;;;;;2.87;0.70;;;9.40;68.20;;;10.34;53.30;97396.13;5029736;28;20412;-54
2023/12/24 02:34:50;;;;;;;2.40;0.87;;;9.30;67.90;;;10.10;54.11;97384.44;5024373;28;20037;-52
2023/12/24 02:37:17;;;;;;;0.67;0.63;;;9.30;68.00;;;10.12;54.02;97378.94;5031250;28;20050;-51
2023/12/24 02:39:45;;;;;;;1.47;1.00;;;9.30;68.60;;;10.21;53.85;97394.75;5029925;28;20295;-53
2023/12/24 02:42:13;;;;;;;2.27;1.10;;;9.30;69.00;;;10.32;53.72;97396.28;5029528;28;20528;-52
2023/12/24 02:44:42;;;;;;;1.00;0.73;;;9.40;68.50;;;10.43;53.41;97406.63;5030002;28;20046;-53
2023/12/24 02:47:09;;;;;;;1.03;0.70;;;9.40;68.60;;;10.39;53.58;97415.94;5030203;28;20049;-51
2023/12/24 02:49:37;;;;;;;0.40;0.40;;;9.40;68.70;;;10.43;53.74;97409.28;5029750;28;20057;-54
2023/12/24 02:52:05;;;;;;;1.47;0.70;;;9.50;68.80;;;10.44;54.14;97413.59;5029962;28;20053;-52
2023/12/24 02:54:33;;;;;;;0.40;0.40;;;9.40;69.40;;;10.46;54.21;97409.94;5030857;28;20033;-54
2023/12/24 02:57:01;;;;;;;0.73;0.50;;;9.40;69.60;;;10.40;54.30;97416.75;5030748;28;20045;-54
2023/12/24 02:59:28;;;;;;;1.63;0.60;;;9.40;70.10;;;10.41;54.44;97435.22;5029603;28;20528;-52
2023/12/24 03:01:56;;;;;;;1.53;0.60;;;9.30;70.50;;;10.32;54.82;97408.78;5029940;28;20045;-50
2023/12/24 03:04:24;;;;;;;0.43;0.43;;;9.30;70.80;;;10.36;54.71;97410.94;5030848;28;20064;-53
2023/12/24 03:06:52;;;;;;;0.53;0.53;;;9.30;71.00;;;10.39;55.08;97415.06;5029723;28;20053;-54
2023/12/24 03:09:19;;;;;;;1.30;0.57;;;9.30;71.30;;;10.35;55.32;97398.63;5030404;28;20045;-55
2023/12/24 03:11:47;;;;;;;0.50;0.50;;;9.30;71.90;;;10.35;55.12;97411.09;5030779;28;20041;-53
2023/12/24 03:14:14;;;;;;;0.70;0.60;;;9.20;72.00;;;10.30;55.33;97414.25;5029734;28;20045;-54
2023/12/24 03:16:43;;;;;;;0.70;0.70;;;9.20;72.30;;;10.34;55.51;97409.44;5013428;28;20042;-52
2023/12/24 03:19:10;;;;;;;1.60;0.70;;;9.20;72.90;;;10.07;56.12;97435.31;5030418;28;20420;-54
2023/12/24 03:21:42;;;;;;;1.23;0.60;;;9.10;73.50;;;10.14;55.99;97407.06;5029501;28;20421;-54
2023/12/24 03:24:10;;;;;;;0.80;0.80;;;9.10;74.00;;;10.15;56.29;97411.38;5013025;28;20057;-53
2023/12/24 03:26:38;;;;;;;1.10;0.70;;;9.10;74.30;;;9.99;56.69;97425.47;5030676;28;20037;-53
2023/12/24 03:29:12;;;;;;;0.40;0.40;;;9.00;74.10;;;10.11;56.76;97409.22;5029007;28;20050;-51
2023/12/24 03:31:40;;;;;;;0.77;0.53;;;9.00;74.30;;;10.12;56.89;97419.69;5029120;28;20045;-52
2023/12/24 03:34:07;;;;;;;0.60;0.50;;;9.00;74.50;;;10.20;56.63;97397.59;5030673;28;20041;-54
2023/12/24 03:36:35;;;;;;;0.70;0.50;;;9.00;74.50;;;10.19;56.31;97403.91;5029304;28;20049;-51
2023/12/24 03:39:03;;;;;;;0.57;0.57;;;9.10;74.60;;;10.14;56.77;97384.94;5029859;28;20045;-52
2023/12/24 03:41:31;;;;;;;0.70;0.70;;;9.00;74.30;;;10.14;56.54;97398.22;5030290;28;20052;-53
2023/12/24 03:43:58;;;;;;;0.80;0.60;;;9.00;74.00;;;10.21;56.16;97393.91;5029977;28;20060;-50
2023/12/24 03:46:27;;;;;;;1.77;0.93;;;9.00;74.10;;;10.15;56.35;97375.97;5033392;28;20049;-51
2023/12/24 03:48:54;;;;;;;1.03;0.77;;;9.00;73.70;;;10.22;55.95;97403.59;5034422;28;20054;-51
2023/12/24 03:51:23;;;;;;;2.73;0.80;;;9.00;73.30;;;10.13;56.12;97380.63;5033031;28;20471;-54
2023/12/24 03:53:52;;;;;;;1.17;0.53;;;9.00;73.10;;;10.18;55.83;97379.13;5033036;28;20042;-54
2023/12/24 03:56:19;;;;;;;1.10;0.63;;;9.10;73.30;;;10.31;56.00;97368.00;5032653;28;20048;-54
2023/12/24 03:58:47;;;;;;;1.17;0.70;;;9.10;73.00;;;10.34;55.45;97385.50;5032932;28;20045;-53
2023/12/24 04:01:14;;;;;;;0.93;0.70;;;9.10;72.20;;;10.39;55.56;97370.69;5032997;28;20050;-53
2023/12/24 04:03:44;;;;;;;0.90;0.70;;;9.20;72.20;;;10.41;55.17;97370.50;5032641;28;20041;-52
2023/12/24 04:06:15;;;;;;;0.83;0.70;;;9.20;71.80;;;10.38;55.22;97398.28;5032999;28;20057;-55
2023/12/24 04:08:43;;;;;;;1.10;0.90;;;9.20;71.40;;;10.27;55.08;97379.94;5033863;28;20068;-54
2023/12/24 04:11:17;;;;;;;1.00;0.70;;;9.20;71.00;;;10.36;54.86;97384.31;5016469;28;20060;-51
2023/12/24 04:13:46;;;;;;;1.87;1.00;;;9.20;70.90;;;10.41;54.57;97378.47;5034121;28;20034;-51
2023/12/24 04:16:14;;;;;;;1.40;1.10;;;9.30;71.90;;;10.38;54.80;97371.69;5032391;28;20440;-54
2023/12/24 04:18:42;;;;;;;2.00;0.80;;;9.30;70.90;;;10.42;54.83;97370.34;5033551;28;20040;-54
2023/12/24 04:21:09;;;;;;;0.90;0.80;;;9.30;70.70;;;10.41;54.77;97375.81;5032828;28;20054;-51
2023/12/24 04:23:37;;;;;;;0.80;0.80;;;9.30;71.10;;;10.44;54.86;97364.84;5032648;28;20497;-54
2023/12/24 04:26:05;;;;;;;2.57;0.77;;;9.30;70.80;;;10.50;54.71;97371.34;5032637;28;20045;-53
2023/12/24 04:28:33;;;;;;;1.27;0.87;;;9.30;71.20;;;10.46;54.73;97364.69;5032151;28;20060;-52
2023/12/24 04:31:03;;;;;;;2.00;1.00;;;9.20;71.30;;;10.51;54.65;97373.84;5032752;28;20390;-54
2023/12/24 04:33:30;;;;;;;0.77;0.70;;;9.30;71.20;;;10.52;54.45;97374.66;5016280;28;20049;-54
2023/12/24 04:35:58;;;;;;;1.03;0.73;;;9.30;71.40;;;10.30;55.20;97358.38;5016026;28;20056;-54
2023/12/24 04:38:26;;;;;;;0.80;0.70;;;9.20;71.50;;;10.35;55.00;97363.19;5033101;28;20037;-52
2023/12/24 04:40:54;;;;;;;0.60;0.60;;;9.20;72.10;;;10.38;55.05;97369.00;5032540;28;20041;-54
2023/12/24 04:43:21;;;;;;;0.67;0.60;;;9.20;72.20;;;10.34;55.56;97337.59;5032147;28;20142;-50
2023/12/24 04:45:49;;;;;;;0.70;0.70;;;9.20;72.00;;;10.34;55.25;97350.91;5033524;28;20057;-51
2023/12/24 04:48:17;;;;;;;1.27;0.80;;;9.20;72.40;;;10.41;55.56;97338.56;5033278;28;20049;-54
2023/12/24 04:50:45;;;;;;;0.70;0.70;;;9.20;72.50;;;10.45;55.17;97339.91;5032014;28;20524;-50
2023/12/24 04:53:13;;;;;;;3.70;1.90;;;9.20;72.40;;;10.42;55.37;97345.56;5031797;28;20505;-53
2023/12/24 04:55:41;;;;;;;0.70;0.70;;;9.20;72.70;;;10.39;55.83;97356.53;5030222;28;20528;-55
2023/12/24 04:58:09;;;;;;;0.90;0.90;;;9.20;73.00;;;10.37;55.81;97329.25;5031658;28;20416;-54
2023/12/24 05:00:37;;;;;;;0.50;0.50;;;9.10;73.70;;;10.42;55.87;97332.25;5015344;28;20042;-54
2023/12/24 05:03:04;;;;;;;0.43;0.43;;;9.10;73.70;;;10.42;55.98;97322.44;5031659;28;20057;-53
2023/12/24 05:05:32;;;;;;;1.23;0.60;;;9.10;74.00;;;10.38;55.68;97317.63;5031905;28;20065;-55
2023/12/24 05:08:00;;;;;;;0.50;0.50;;;9.10;74.20;;;10.40;55.99;97315.63;5031426;28;20049;-52
2023/12/24 05:10:28;;;;;;;1.13;0.70;;;9.10;74.20;;;10.36;56.06;97291.19;5031471;28;20053;-54
2023/12/24 05:12:56;;;;;;;0.50;0.50;;;9.10;74.10;;;10.43;55.83;97305.47;5031460;28;20469;-53
2023/12/24 05:15:23;;;;;;;0.60;0.60;;;9.10;74.20;;;10.37;55.91;97282.22;5031819;28;20053;-52
2023/12/24 05:17:55;;;;;;;0.90;0.60;;;9.10;74.50;;;10.35;56.09;97286.88;5031622;28;20116;-50
2023/12/24 05:20:23;;;;;;;0.43;0.43;;;9.10;74.70;;;10.36;56.07;97288.53;5031850;28;20045;-56
2023/12/24 05:22:51;;;;;;;0.83;0.60;;;9.00;74.40;;;10.32;55.96;97292.53;5031623;28;20053;-50
2023/12/24 05:25:20;;;;;;;0.60;0.50;;;9.00;74.40;;;10.23;56.38;97291.66;5031414;28;20052;-51
2023/12/24 05:27:48;;;;;;;0.40;0.40;;;9.00;74.60;;;10.32;56.15;97297.03;5030905;28;20437;-52
2023/12/24 05:30:15;;;;;;;0.90;0.70;;;9.00;74.50;;;10.27;56.29;97321.41;5032676;28;20049;-52
2023/12/24 05:32:43;;;;;;;0.30;0.30;;;9.00;74.80;;;10.35;56.41;97304.66;5032064;28;20049;-53
2023/12/24 05:35:11;;;;;;;0.47;0.47;;;9.00;74.40;;;10.40;56.44;97310.31;5032642;28;20046;-51
2023/12/24 05:37:39;;;;;;;1.90;0.60;;;9.10;74.50;;;10.38;56.10;97307.81;5030782;28;20393;-53
2023/12/24 05:40:07;;;;;;;0.40;0.30;;;9.10;74.60;;;10.39;56.04;97298.00;5032545;28;20048;-54
2023/12/24 05:42:35;;;;;;;0.30;0.30;;;9.10;74.00;;;10.38;55.99;97309.66;5031115;28;20052;-52
2023/12/24 05:45:04;;;;;;;0.50;0.50;;;9.10;74.00;;;10.38;56.10;97289.19;5032448;28;20041;-54
2023/12/24 05:47:31;;;;;;;0.40;0.40;;;9.10;74.00;;;10.38;56.24;97304.31;5031886;28;20049;-54
2023/12/24 05:49:59;;;;;;;0.30;0.30;;;9.10;73.90;;;10.41;56.27;97294.19;5032303;28;20615;-54
2023/12/24 05:52:26;;;;;;;0.40;0.40;;;9.10;74.10;;;10.40;56.16;97295.16;5032275;28;20406;-52
2023/12/24 05:54:54;;;;;;;0.83;0.60;;;9.20;73.90;;;10.39;56.23;97298.84;5024188;28;20493;-53
2023/12/24 05:57:22;;;;;;;0.40;0.40;;;9.20;73.70;;;10.46;56.22;97300.81;5031302;28;20041;-53
2023/12/24 05:59:50;;;;;;;0.40;0.40;;;9.20;73.30;;;10.49;55.86;97309.31;5031799;28;20497;-55
2023/12/24 06:02:18;;;;;;;0.27;0.27;;;9.20;73.90;;;10.46;55.82;97301.66;5030926;28;20052;-53
2023/12/24 06:04:46;;;;;;;0.80;0.50;;;9.20;73.70;;;10.54;55.57;97317.59;5031989;28;20052;-54
2023/12/24 06:07:13;;;;;;;0.20;0.20;;;9.30;73.10;;;10.56;55.78;97294.28;5030547;28;20053;-51
2023/12/24 06:09:41;;;;;;;0.50;0.50;;;9.40;73.30;;;10.54;55.92;97276.84;5031615;28;20465;-55
2023/12/24 06:12:08;;;;;;;0.50;0.50;;;9.40;73.10;;;10.53;55.77;97264.56;5030279;28;20053;-52
2023/12/24 06:14:37;;;;;;;1.43;0.50;;;9.30;73.70;;;10.56;55.71;97267.69;5031700;28;20045;-53
2023/12/24 06:17:05;;;;;;;0.30;0.30;;;9.30;73.20;;;10.52;56.01;97276.19;5031777;28;20093;-54
2023/12/24 06:19:33;;;;;;;2.10;0.40;;;9.30;73.50;;;10.54;56.02;97268.88;5031232;28;20068;-52
2023/12/24 06:22:01;;;;;;;1.37;0.50;;;9.30;73.30;;;10.42;56.34;97271.06;5031848;28;20041;-53
2023/12/24 06:24:28;;;;;;;0.43;0.40;;;9.30;73.60;;;10.50;56.25;97275.53;5031598;28;20048;-54
2023/12/24 06:26:56;;;;;;;0.30;0.30;;;9.30;73.60;;;10.52;56.16;97252.22;5031504;28;20060;-53
2023/12/24 06:29:24;;;;;;;0.60;0.50;;;9.40;73.60;;;10.51;56.02;97261.22;5031340;28;20045;-52
2023/12/24 06:31:55;;;;;;;1.30;0.57;;;9.40;73.20;;;10.53;55.99;97248.59;5031115;28;20420;-51
2023/12/24 06:34:23;;;;;;;1.00;0.63;;;9.40;73.00;;;10.43;55.92;97241.63;5031503;28;20049;-54
2023/12/24 06:36:51;;;;;;;0.40;0.40;;;9.30;72.80;;;10.55;56.19;97235.94;5031395;28;20048;-51
2023/12/24 06:39:18;;;;;;;0.40;0.33;;;9.40;73.10;;;10.56;56.12;97234.91;5030893;28;20034;-51
2023/12/24 06:41:47;;;;;;;0.50;0.30;;;9.40;72.90;;;10.56;55.84;97229.59;5030845;28;20060;-54
2023/12/24 06:44:15;;;;;;;0.50;0.50;;;9.40;73.10;;;10.58;55.54;97251.53;5031328;28;20053;-54
2023/12/24 06:46:42;;;;;;;0.53;0.50;;;9.40;72.60;;;10.53;56.16;97249.41;5031341;28;20421;-53
2023/12/24 06:49:10;;;;;;;0.60;0.50;;;9.40;72.90;;;10.52;55.74;97260.22;5029833;28;20060;-51
2023/12/24 06:51:38;;;;;;;0.53;0.37;;;9.40;72.50;;;10.58;55.53;97257.69;5030809;28;20045;-54
2023/12/24 06:54:05;;;;;;;0.60;0.50;;;9.40;72.40;;;10.58;56.05;97259.53;5031131;28;20044;-54
2023/12/24 06:56:33;;;;;;;1.67;0.70;;;9.40;73.00;;;10.67;55.84;97255.03;5031209;28;20046;-55
2023/12/24 06:59:02;;;;;;;0.43;0.43;;;9.40;73.20;;;10.72;55.68;97250.84;5022824;28;20497;-53
2023/12/24 07:01:30;;;;;;;0.50;0.50;;;9.50;73.10;;;10.70;55.76;97252.88;5031302;28;20117;-53
2023/12/24 07:03:58;;;;;;;0.60;0.53;;;9.50;73.10;;;10.68;55.44;97232.72;5030913;28;20046;-55
2023/12/24 07:06:25;;;;;;;1.07;0.80;;;9.50;73.20;;;10.71;55.96;97225.22;5030931;28;20505;-51
2023/12/24 07:08:53;;;;;;;0.43;0.43;;;9.50;73.30;;;10.70;55.79;97226.25;5030744;28;20049;-53
2023/12/24 07:11:21;;;;;;;0.53;0.50;;;9.50;73.30;;;10.77;55.41;97229.03;5031062;28;20076;-55
2023/12/24 07:13:48;;;;;;;0.60;0.60;;;9.50;73.20;;;10.78;55.94;97220.88;5031001;28;20049;-53
2023/12/24 07:16:16;;;;;;;1.33;0.67;;;9.60;73.20;;;10.81;55.40;97225.84;5030782;28;20045;-51
2023/12/24 07:18:44;;;;;;;0.97;0.50;;;9.60;73.10;;;10.78;55.43;97223.53;5028525;28;20045;-53
2023/12/24 07:21:11;;;;;;;0.40;0.40;;;9.60;72.90;;;10.81;55.58;97228.50;5030911;28;20041;-55
2023/12/24 07:23:39;;;;;;;1.00;0.87;;;9.60;73.70;;;10.86;56.02;97221.81;5030827;28;20049;-53
2023/12/24 07:26:07;;;;;;;0.63;0.63;;;9.60;74.30;;;10.82;56.14;97213.38;5031024;28;20052;-55
2023/12/24 07:28:35;;;;;;;0.57;0.50;;;9.50;75.10;;;10.88;56.51;97211.84;5030391;28;20556;-55
2023/12/24 07:31:03;;;;;;;0.87;0.50;;;9.60;74.80;;;10.83;56.19;97197.19;5022836;28;20053;-54
2023/12/24 07:33:31;;;;;;;0.97;0.60;;;9.50;74.80;;;10.89;56.26;97187.69;5030486;28;20053;-52
2023/12/24 07:35:58;;;;;;;1.73;0.60;;;9.60;74.50;;;10.94;56.27;97193.34;5030470;28;20056;-55
2023/12/24 07:38:29;;;;;;;1.40;0.50;;;9.70;74.50;;;10.94;56.28;97203.16;5030771;28;20053;-53
2023/12/24 07:40:57;;;;;;;0.50;0.50;;;9.70;75.00;;;10.99;56.72;97201.63;5030657;28;20041;-55
2023/12/24 07:43:24;;;;;;;0.50;0.50;;;9.70;75.70;;;11.00;56.21;97184.63;5030375;28;20415;-54
2023/12/24 07:45:52;;;;;;;0.40;0.40;;;9.60;76.60;;;11.01;56.22;97182.78;5030516;28;20044;-55
2023/12/24 07:48:20;;;;;;;0.83;0.40;;;9.70;76.10;;;11.06;56.52;97204.41;5028900;28;20058;-53
2023/12/24 07:50:48;;;;;;;0.70;0.30;;;9.70;76.20;;;11.03;56.50;97210.94;5030646;28;20072;-56
2023/12/24 07:53:15;;;;;;;1.27;0.67;;;9.70;76.20;;;11.08;56.50;97212.25;5030561;28;20493;-55
2023/12/24 07:55:43;;;;;;;0.83;0.50;;;9.70;76.00;;;11.07;56.32;97222.06;5030323;28;20053;-55
2023/12/24 07:58:11;;;;;;;0.43;0.43;;;9.70;76.00;;;11.08;56.66;97217.56;5028953;28;20527;-55
2023/12/24 08:00:38;;;;;;;0.37;0.37;;;9.70;76.50;;;11.04;56.40;97231.22;5030512;28;20546;-54
2023/12/24 08:03:06;;;;;;;0.40;0.33;;;9.70;75.80;;;11.06;56.52;97225.72;5022032;28;20042;-54
2023/12/24 08:05:33;;;;;;;0.57;0.57;;;9.70;75.70;;;11.06;56.54;97238.22;5028918;28;20041;-54
2023/12/24 08:08:02;;;;;;;0.30;0.30;;;9.70;75.90;;;11.05;56.82;97218.75;5029997;28;20049;-52
2023/12/24 08:10:29;;;;;;;0.60;0.60;;;9.70;75.90;;;11.10;56.48;97215.56;5030457;28;20037;-53
2023/12/24 08:12:57;;;;;;;0.77;0.77;;;9.80;75.60;;;11.12;56.67;97206.38;5030120;28;20048;-52
2023/12/24 08:15:38;;;;;;;0.50;0.30;;;9.80;75.60;;;11.17;56.31;97211.19;5030261;28;20410;-53
2023/12/24 08:18:06;;;;;;;0.37;0.37;;;9.80;75.90;;;11.15;56.67;97197.22;5030151;28;20045;-54
2023/12/24 08:20:34;;;;;;;0.60;0.40;;;9.80;76.00;;;11.13;56.93;97197.41;5030606;28;20041;-53
2023/12/24 08:23:03;;;;;;;0.43;0.40;;;9.80;76.00;;;11.15;56.69;97190.06;5029017;28;20053;-55
2023/12/24 08:25:30;;;;;;;0.43;0.40;;;9.80;75.90;;;11.13;56.77;97192.06;5029470;28;20045;-52
2023/12/24 08:27:59;;;;;;;0.40;0.40;;;9.80;76.10;;;11.18;56.92;97197.69;5028785;28;20041;-52
2023/12/24 08:30:28;;;;;;;0.50;0.50;;;9.80;76.00;;;11.17;56.70;97192.56;5031626;28;20068;-54
2023/12/24 08:32:56;;;;;;;1.17;0.63;;;9.80;76.10;;;11.18;56.62;97181.69;5033819;28;20507;-55
2023/12/24 08:35:24;;;;;;;1.20;0.77;;;9.80;76.20;;;11.19;56.85;97193.19;5033579;28;20064;-55
2023/12/24 08:37:51;;;;;;;0.50;0.50;;;9.80;76.20;;;11.11;56.92;97190.56;5033159;28;20049;-54
2023/12/24 08:40:19;;;;;;;0.87;0.67;;;9.80;77.40;;;11.10;56.89;97171.09;5033636;28;20044;-54
2023/12/24 08:42:47;;;;;;;0.70;0.60;;;9.80;76.80;;;11.07;57.57;97183.94;5033392;28;20045;-54
2023/12/24 08:45:14;;;;;;;0.50;0.50;;;9.80;77.20;;;11.09;57.33;97185.44;5032584;28;20046;-54
2023/12/24 08:47:42;;;;;;;0.30;0.30;;;9.70;77.20;;;11.16;56.97;97174.88;5031864;28;20052;-55
2023/12/24 08:50:10;;;;;;;0.37;0.37;;;9.80;77.00;;;11.18;57.06;97186.19;5032041;28;20050;-52
2023/12/24 08:52:39;;;;;;;0.40;0.40;;;9.80;77.00;;;11.20;57.01;97179.69;5033259;28;20045;-53
2023/12/24 08:55:07;;;;;;;0.50;0.50;;;9.90;77.10;;;11.17;57.65;97180.06;5033384;28;20437;-54
2023/12/24 08:57:35;;;;;;;0.60;0.60;;;9.80;77.10;;;11.20;57.44;97192.19;5033065;28;20433;-52
2023/12/24 09:00:05;;;;;;;0.37;0.37;;;9.90;77.30;;;11.22;57.67;97196.34;5033165;28;20037;-54
2023/12/24 09:02:32;;;;;;;0.40;0.40;;;9.90;77.10;;;11.16;57.48;97194.38;5033037;28;20045;-52
2023/12/24 09:05:00;;;;;;;0.30;0.30;;;9.90;77.60;;;11.19;58.00;97214.50;5033080;28;20050;-55
2023/12/24 09:07:28;;;;;;;0.70;0.63;;;9.90;77.80;;;11.21;57.80;97208.00;5033326;28;20045;-53
2023/12/24 09:09:55;;;;;;;0.40;0.40;;;10.00;78.30;;;11.20;58.29;97200.16;5032900;28;20056;-52
2023/12/24 09:12:23;;;;;;;0.37;0.37;;;10.00;78.90;;;11.15;58.62;97205.22;5033033;28;20489;-54
2023/12/24 09:14:50;;;;;;;1.03;0.70;;;9.90;79.80;;;11.18;58.95;97215.50;5032866;28;20049;-51
2023/12/24 09:17:18;;;;;;;0.40;0.40;;;9.90;81.30;;;11.21;58.99;97221.31;5033048;28;20041;-54
2023/12/24 09:19:46;;;;;;;0.43;0.40;;;9.90;81.40;;;11.20;59.32;97216.16;5032779;28;20421;-53
2023/12/24 09:22:13;;;;;;;0.47;0.30;;;9.90;81.70;;;11.26;59.31;97220.78;5031358;28;20412;-53
2023/12/24 09:24:41;;;;;;;0.47;0.47;;;10.00;82.40;;;11.25;59.67;97205.81;5031717;28;20413;-55
2023/12/24 09:27:09;;;;;;;0.77;0.53;;;9.90;82.50;;;11.25;59.84;97224.47;5032759;28;20037;-53
2023/12/24 09:29:37;;;;;;;0.40;0.40;;;9.90;83.10;;;11.29;59.47;97217.78;5032451;28;20046;-52
2023/12/24 09:32:05;;;;;;;0.83;0.50;;;10.00;82.70;;;11.34;59.64;97217.25;5032518;28;20060;-54
2023/12/24 09:34:33;;;;;;;0.83;0.50;;;10.00;83.20;;;11.37;59.56;97215.06;5031581;28;20038;-55
2023/12/24 09:37:01;;;;;;;0.30;0.30;;;10.00;83.30;;;11.40;59.56;97221.88;5031553;28;20045;-51
2023/12/24 09:39:29;;;;;;;1.33;0.73;;;10.10;83.50;;;11.38;59.99;97213.22;5032227;28;20053;-54
2023/12/24 09:41:57;;;;;;;1.37;0.90;;;10.00;84.60;;;11.37;59.70;97207.06;5031638;28;20045;-52
2023/12/24 09:44:26;;;;;;;1.77;1.20;;;10.00;84.50;;;11.39;60.29;97209.56;5015164;28;20052;-52
2023/12/24 09:46:54;;;;;;;0.53;0.53;;;10.00;85.80;;;11.37;60.58;97216.91;5032369;28;20051;-54
2023/12/24 09:49:22;;;;;;;0.40;0.40;;;10.00;85.30;;;11.33;60.66;97212.94;5030860;28;20041;-54
2023/12/24 09:51:49;;;;;;;0.50;0.50;;;9.90;86.30;;;11.38;60.86;97221.19;5032374;28;20045;-50
2023/12/24 09:54:18;;;;;;;0.77;0.50;;;10.00;86.30;;;11.38;60.51;97218.53;5032262;28;20041;-54
2023/12/24 09:56:45;;;;;;;0.50;0.47;;;10.00;86.20;;;11.37;60.90;97224.91;5032414;28;20041;-49
2023/12/24 09:59:14;;;;;;;0.40;0.40;;;10.00;85.60;;;11.37;60.46;97222.22;5031606;28;20488;-55
2023/12/24 10:01:44;;;;;;;0.87;0.67;;;10.00;86.30;;;11.37;60.97;97223.03;5031775;28;20052;-53
2023/12/24 10:04:13;;;;;;;0.80;0.50;;;10.00;85.50;;;11.34;61.00;97218.09;5032509;28;20489;-53
2023/12/24 10:06:54;;;;;;;1.03;0.50;;;10.00;85.90;;;11.25;61.49;97210.31;5032048;28;20050;-55
2023/12/24 10:09:40;;;;;;;0.50;0.50;;;10.00;86.20;;;11.26;61.41;97201.31;5024169;28;20417;-53
2023/12/24 10:12:09;;;;;;;0.70;0.70;;;9.90;86.00;;;11.27;61.16;97203.81;5031940;28;20052;-52
2023/12/24 10:14:39;;;;;;;0.43;0.40;;;10.00;85.60;;;11.30;61.12;97187.47;5032376;28;20052;-54
2023/12/24 10:17:07;;;;;;;0.40;0.40;;;10.00;85.60;;;11.32;61.48;97189.94;5031924;28;20052;-53
2023/12/24 10:19:35;;;;;;;0.60;0.60;;;10.10;85.80;;;11.34;61.23;97188.78;5031528;28;20041;-54
2023/12/24 10:22:08;;;;;;;0.37;0.37;;;10.10;85.10;;;11.38;61.45;97181.22;5031854;28;20045;-54
2023/12/24 10:24:41;;;;;;;0.40;0.40;;;10.10;84.50;;;11.43;61.19;97184.19;5031823;28;20412;-57
2023/12/24 10:27:11;;;;;;;0.55;0.55;;;10.20;84.20;;;11.43;61.41;97192.19;5030713;28;20045;-52
2023/12/24 10:29:42;;;;;;;0.53;0.50;;;10.20;84.70;;;11.48;60.86;97191.69;5031484;28;20068;-52